Ripley, MS (38663)

10:34 AM CDT on July 24, 2014 (GMT -0500)
Northhaven (KMSNEWAL2) Elev 364 ft | 34.51 °N, 89.00 °W | Change Station

Current weather conditions updated 13 minutes ago

Overcast
Overcast
76.6 °F
Feels Like 77 °F
N
2.2
Wind Variable Wind from WNW

Today is forecast to be Much Cooler than yesterday.

Today
High -- | Low -- °F
--% Chance of Precip.
Yesterday
High -- | Low -- °F
Precip. -- in
6:00 AM 8:04 PM
Waning Crescent, 5% visible
Pressure 30.05 in
Visibility 5.0 miles
Clouds Overcast 600 ft
Heat Index 77 °F
Dew Point 73 °F
Humidity 89%
Rainfall 0.00 in
Snow Depth Not available.
UV 2 out of 12
Pollen 3.90 out of 12
Air Quality Not available.
Flu Activity Not available.
METAR KCRX 241515Z AUTO 34004KT 5SM BR OVC006 22/20 A3005 RMK AO2

More Conditions Fewer Conditions

Pressure 30.05 in
Visibility 5.0 miles
Clouds Overcast 600 ft
Heat Index 77 °F
Dew Point 73 °F
Humidity 89%
Rainfall 0.00 in
Snow Depth Not available.
UV 2 out of 12
Pollen 3.90 out of 12
Air Quality Not available.
Flu Activity Not available.
METAR KCRX 241515Z AUTO 34004KT 5SM BR OVC006 22/20 A3005 RMK AO2

More Conditions Fewer Conditions

10-Day Weather Forecast

Almanac

Astronomy

Jul. 24, 2014 Rise Set
Actual Time 6:00 AM CDT 8:04 PM CDT
Civil Twilight 5:31 AM CDT 8:32 PM CDT
Nautical Twilight 4:57 AM CDT 9:06 PM CDT
Astronomical Twilight 4:20 AM CDT 9:43 PM CDT
Moon 4:06 AM CDT 6:20 PM CDT
Length of Visible Light 15h 00m
Length of Day
14h 04m
Tomorrow will be 1m 24s shorter.
Waning Crescent, 5% of the Moon is Illuminated
Today
Waning Crescent
Jul 26
New
Aug 3
First Quarter
Aug 10
Full
Aug 17
Last Quarter

Today's Extremes

State Highs State Lows

Community

WunderPhotos

Upload Photos

1,737,042 photos uploaded!

Nearby

Snow Depth

Station Depth Elevation
No new snow has been reported.

Earthquake Activity

City Distance Mag. Time & Date
No recent earthquake activity has been reported nearby.
Minimum magnitude displayed is 2.5.

Coastal Water Temperatures

Place Temperature
No Stations Reporting

Nearby Weather Stations

Station Location Temp. Heat Index Dew Point Humidity Wind Precip. Elev Updated Type
Northhaven, New Albany, MS 76.6 °F 77 °F 73 °F 89% WNW  at  2.2 mph - / hr 364 ft 10:21 AM CDT Normal

Show More Stations Show Fewer Stations